sensor_id;sensor_type;location;lat;lon;timestamp;temperature;humidity
27858;DHT22;16852;51.446;6.528;2022-10-31T00:01:36;17.50;99.90
27858;DHT22;16852;51.446;6.528;2022-10-31T00:03:37;17.50;99.90
27858;DHT22;16852;51.446;6.528;2022-10-31T00:05:41;17.60;99.90
27858;DHT22;16852;51.446;6.528;2022-10-31T00:07:42;17.60;99.90
27858;DHT22;16852;51.446;6.528;2022-10-31T00:09:43;17.60;99.90
27858;DHT22;16852;51.446;6.528;2022-10-31T00:11:43;17.60;99.90
27858;DHT22;16852;51.446;6.528;2022-10-31T00:13:44;17.60;99.90
27858;DHT22;16852;51.446;6.528;2022-10-31T00:15:45;17.60;99.90
27858;DHT22;16852;51.446;6.528;2022-10-31T00:17:45;17.60;99.90
27858;DHT22;16852;51.446;6.528;2022-10-31T00:19:46;17.60;99.90
27858;DHT22;16852;51.446;6.528;2022-10-31T00:21:46;17.60;99.90
27858;DHT22;16852;51.446;6.528;2022-10-31T00:23:47;17.60;99.90
27858;DHT22;16852;51.446;6.528;2022-10-31T00:25:48;17.60;99.90
27858;DHT22;16852;51.446;6.528;2022-10-31T00:27:48;17.60;99.90
27858;DHT22;16852;51.446;6.528;2022-10-31T00:29:49;17.60;99.90
27858;DHT22;16852;51.446;6.528;2022-10-31T00:31:49;17.60;99.90
27858;DHT22;16852;51.446;6.528;2022-10-31T00:33:50;17.60;99.90
27858;DHT22;16852;51.446;6.528;2022-10-31T00:35:51;17.60;99.90
27858;DHT22;16852;51.446;6.528;2022-10-31T00:37:52;17.60;99.90
27858;DHT22;16852;51.446;6.528;2022-10-31T00:39:52;17.60;99.90
27858;DHT22;16852;51.446;6.528;2022-10-31T00:41:53;17.60;99.90
27858;DHT22;16852;51.446;6.528;2022-10-31T00:43:53;17.60;99.90
27858;DHT22;16852;51.446;6.528;2022-10-31T00:45:54;17.60;99.90
27858;DHT22;16852;51.446;6.528;2022-10-31T00:47:55;17.60;99.90
27858;DHT22;16852;51.446;6.528;2022-10-31T00:49:55;17.60;99.90
27858;DHT22;16852;51.446;6.528;2022-10-31T00:51:56;17.60;99.90
27858;DHT22;16852;51.446;6.528;2022-10-31T00:53:56;17.60;99.90
27858;DHT22;16852;51.446;6.528;2022-10-31T00:55:57;17.60;99.90
27858;DHT22;16852;51.446;6.528;2022-10-31T00:57:57;17.60;99.90
27858;DHT22;16852;51.446;6.528;2022-10-31T00:59:58;17.60;99.90
27858;DHT22;16852;51.446;6.528;2022-10-31T01:01:58;17.60;99.90
27858;DHT22;16852;51.446;6.528;2022-10-31T01:03:59;17.50;99.90
27858;DHT22;16852;51.446;6.528;2022-10-31T01:06:09;17.50;99.90
27858;DHT22;16852;51.446;6.528;2022-10-31T01:08:09;17.50;99.90
27858;DHT22;16852;51.446;6.528;2022-10-31T01:10:10;17.50;99.90
27858;DHT22;16852;51.446;6.528;2022-10-31T01:12:11;17.50;99.90
27858;DHT22;16852;51.446;6.528;2022-10-31T01:14:12;17.50;99.90
27858;DHT22;16852;51.446;6.528;2022-10-31T01:16:15;17.40;99.90
27858;DHT22;16852;51.446;6.528;2022-10-31T01:18:16;17.40;99.90
27858;DHT22;16852;51.446;6.528;2022-10-31T01:20:16;17.40;99.90
27858;DHT22;16852;51.446;6.528;2022-10-31T01:22:17;17.30;99.90
27858;DHT22;16852;51.446;6.528;2022-10-31T01:24:18;17.30;99.90
27858;DHT22;16852;51.446;6.528;2022-10-31T01:26:21;17.30;99.90
27858;DHT22;16852;51.446;6.528;2022-10-31T01:28:22;17.30;99.90
27858;DHT22;16852;51.446;6.528;2022-10-31T01:30:22;17.20;99.90
27858;DHT22;16852;51.446;6.528;2022-10-31T01:32:23;17.20;99.90
27858;DHT22;16852;51.446;6.528;2022-10-31T01:34:24;17.20;99.90
27858;DHT22;16852;51.446;6.528;2022-10-31T01:36:33;17.20;99.90
27858;DHT22;16852;51.446;6.528;2022-10-31T01:38:33;17.10;99.90
27858;DHT22;16852;51.446;6.528;2022-10-31T01:40:34;17.10;99.90
27858;DHT22;16852;51.446;6.528;2022-10-31T01:42:35;17.10;99.90
27858;DHT22;16852;51.446;6.528;2022-10-31T01:46:59;17.10;99.90
27858;DHT22;16852;51.446;6.528;2022-10-31T01:49:02;17.10;99.90
27858;DHT22;16852;51.446;6.528;2022-10-31T01:51:04;17.00;99.90
27858;DHT22;16852;51.446;6.528;2022-10-31T01:53:07;17.00;99.90
27858;DHT22;16852;51.446;6.528;2022-10-31T01:55:18;17.00;99.90
27858;DHT22;16852;51.446;6.528;2022-10-31T01:57:21;17.00;99.90
27858;DHT22;16852;51.446;6.528;2022-10-31T01:59:24;16.90;99.90
27858;DHT22;16852;51.446;6.528;2022-10-31T02:01:26;16.90;99.90
27858;DHT22;16852;51.446;6.528;2022-10-31T02:03:28;16.90;99.90
27858;DHT22;16852;51.446;6.528;2022-10-31T02:05:30;16.90;99.90
27858;DHT22;16852;51.446;6.528;2022-10-31T02:07:53;16.90;99.90
27858;DHT22;16852;51.446;6.528;2022-10-31T02:09:55;16.80;99.90
27858;DHT22;16852;51.446;6.528;2022-10-31T02:11:58;16.80;99.90
27858;DHT22;16852;51.446;6.528;2022-10-31T02:14:00;16.80;99.90
27858;DHT22;16852;51.446;6.528;2022-10-31T02:16:01;16.70;99.90
27858;DHT22;16852;51.446;6.528;2022-10-31T02:18:02;16.60;99.90
27858;DHT22;16852;51.446;6.528;2022-10-31T02:20:12;16.60;99.90
27858;DHT22;16852;51.446;6.528;2022-10-31T02:22:34;16.50;99.90
27858;DHT22;16852;51.446;6.528;2022-10-31T02:29:55;16.50;99.90
27858;DHT22;16852;51.446;6.528;2022-10-31T02:32:09;16.40;99.90
27858;DHT22;16852;51.446;6.528;2022-10-31T02:34:23;16.40;99.90
27858;DHT22;16852;51.446;6.528;2022-10-31T02:43:34;16.40;99.90
27858;DHT22;16852;51.446;6.528;2022-10-31T02:45:41;16.40;99.90
27858;DHT22;16852;51.446;6.528;2022-10-31T02:47:45;16.40;99.90
27858;DHT22;16852;51.446;6.528;2022-10-31T02:51:49;16.30;99.90
27858;DHT22;16852;51.446;6.528;2022-10-31T02:53:50;16.30;99.90
27858;DHT22;16852;51.446;6.528;2022-10-31T02:55:57;16.30;99.90
27858;DHT22;16852;51.446;6.528;2022-10-31T02:58:02;16.20;99.90
27858;DHT22;16852;51.446;6.528;2022-10-31T03:00:06;16.20;99.90
27858;DHT22;16852;51.446;6.528;2022-10-31T03:05:13;16.10;99.90
27858;DHT22;16852;51.446;6.528;2022-10-31T03:12:40;16.00;99.90
27858;DHT22;16852;51.446;6.528;2022-10-31T03:14:56;15.90;99.90
27858;DHT22;16852;51.446;6.528;2022-10-31T03:17:05;16.00;99.90
27858;DHT22;16852;51.446;6.528;2022-10-31T03:19:16;16.00;99.90
27858;DHT22;16852;51.446;6.528;2022-10-31T03:21:27;15.90;99.90
27858;DHT22;16852;51.446;6.528;2022-10-31T03:23:30;15.90;99.90
27858;DHT22;16852;51.446;6.528;2022-10-31T03:25:33;15.90;99.90
27858;DHT22;16852;51.446;6.528;2022-10-31T03:27:36;16.00;99.90
27858;DHT22;16852;51.446;6.528;2022-10-31T03:29:38;15.90;99.90
27858;DHT22;16852;51.446;6.528;2022-10-31T03:31:51;15.90;99.90
27858;DHT22;16852;51.446;6.528;2022-10-31T03:33:53;15.90;99.90
27858;DHT22;16852;51.446;6.528;2022-10-31T03:35:56;15.90;99.90
27858;DHT22;16852;51.446;6.528;2022-10-31T03:37:59;15.90;99.90
27858;DHT22;16852;51.446;6.528;2022-10-31T03:40:02;15.90;99.90
27858;DHT22;16852;51.446;6.528;2022-10-31T03:42:23;15.90;99.90
27858;DHT22;16852;51.446;6.528;2022-10-31T03:44:26;15.90;99.90
27858;DHT22;16852;51.446;6.528;2022-10-31T03:46:28;15.90;99.90
27858;DHT22;16852;51.446;6.528;2022-10-31T03:48:29;15.90;99.90
27858;DHT22;16852;51.446;6.528;2022-10-31T03:50:43;15.80;99.90
27858;DHT22;16852;51.446;6.528;2022-10-31T03:52:55;15.80;99.90
27858;DHT22;16852;51.446;6.528;2022-10-31T03:55:03;15.80;99.90
27858;DHT22;16852;51.446;6.528;2022-10-31T03:57:23;15.80;99.90
27858;DHT22;16852;51.446;6.528;2022-10-31T03:59:35;15.80;99.90
27858;DHT22;16852;51.446;6.528;2022-10-31T04:01:39;15.80;99.90
27858;DHT22;16852;51.446;6.528;2022-10-31T04:03:41;15.80;99.90
27858;DHT22;16852;51.446;6.528;2022-10-31T04:05:45;15.70;99.90
27858;DHT22;16852;51.446;6.528;2022-10-31T04:07:48;15.70;99.90
27858;DHT22;16852;51.446;6.528;2022-10-31T04:09:50;15.70;99.90
27858;DHT22;16852;51.446;6.528;2022-10-31T04:11:54;15.60;99.90
27858;DHT22;16852;51.446;6.528;2022-10-31T04:13:57;15.60;99.90
27858;DHT22;16852;51.446;6.528;2022-10-31T04:15:58;15.40;99.90
27858;DHT22;16852;51.446;6.528;2022-10-31T04:18:00;15.40;99.90
27858;DHT22;16852;51.446;6.528;2022-10-31T04:20:01;15.10;99.90
27858;DHT22;16852;51.446;6.528;2022-10-31T04:22:02;15.00;99.90
27858;DHT22;16852;51.446;6.528;2022-10-31T04:24:03;15.00;99.90
27858;DHT22;16852;51.446;6.528;2022-10-31T04:26:03;15.00;99.90
27858;DHT22;16852;51.446;6.528;2022-10-31T04:28:04;15.00;99.90
27858;DHT22;16852;51.446;6.528;2022-10-31T04:30:05;15.10;99.90
27858;DHT22;16852;51.446;6.528;2022-10-31T04:32:06;15.10;99.90
27858;DHT22;16852;51.446;6.528;2022-10-31T04:34:06;15.10;99.90
27858;DHT22;16852;51.446;6.528;2022-10-31T04:36:08;15.10;99.90
27858;DHT22;16852;51.446;6.528;2022-10-31T04:38:08;15.10;99.90
27858;DHT22;16852;51.446;6.528;2022-10-31T04:40:09;15.10;99.90
27858;DHT22;16852;51.446;6.528;2022-10-31T04:42:10;15.20;99.90
27858;DHT22;16852;51.446;6.528;2022-10-31T04:44:11;15.10;99.90
27858;DHT22;16852;51.446;6.528;2022-10-31T04:46:11;15.20;99.90
27858;DHT22;16852;51.446;6.528;2022-10-31T04:48:12;15.20;99.90
27858;DHT22;16852;51.446;6.528;2022-10-31T04:50:12;15.20;99.90
27858;DHT22;16852;51.446;6.528;2022-10-31T04:52:13;15.30;99.90
27858;DHT22;16852;51.446;6.528;2022-10-31T04:54:13;15.30;99.90
27858;DHT22;16852;51.446;6.528;2022-10-31T04:56:14;15.30;99.90
27858;DHT22;16852;51.446;6.528;2022-10-31T04:58:15;15.30;99.90
27858;DHT22;16852;51.446;6.528;2022-10-31T05:00:17;15.30;99.90
27858;DHT22;16852;51.446;6.528;2022-10-31T05:02:18;15.30;99.90
27858;DHT22;16852;51.446;6.528;2022-10-31T05:04:19;15.30;99.90
27858;DHT22;16852;51.446;6.528;2022-10-31T05:06:19;15.20;99.90
27858;DHT22;16852;51.446;6.528;2022-10-31T05:08:20;15.10;99.90
27858;DHT22;16852;51.446;6.528;2022-10-31T05:10:22;15.10;99.90
27858;DHT22;16852;51.446;6.528;2022-10-31T05:12:23;15.00;99.90
27858;DHT22;16852;51.446;6.528;2022-10-31T05:14:24;15.10;99.90
27858;DHT22;16852;51.446;6.528;2022-10-31T05:16:24;15.00;99.90
27858;DHT22;16852;51.446;6.528;2022-10-31T05:18:25;15.10;99.90
27858;DHT22;16852;51.446;6.528;2022-10-31T05:20:28;15.10;99.90
27858;DHT22;16852;51.446;6.528;2022-10-31T05:22:29;15.10;99.90
27858;DHT22;16852;51.446;6.528;2022-10-31T05:24:29;15.10;99.90
27858;DHT22;16852;51.446;6.528;2022-10-31T05:26:30;15.10;99.90
27858;DHT22;16852;51.446;6.528;2022-10-31T05:28:30;15.10;99.90
27858;DHT22;16852;51.446;6.528;2022-10-31T05:30:32;15.10;99.90
27858;DHT22;16852;51.446;6.528;2022-10-31T05:32:46;15.10;99.90
27858;DHT22;16852;51.446;6.528;2022-10-31T05:34:47;15.10;99.90
27858;DHT22;16852;51.446;6.528;2022-10-31T05:36:47;15.10;99.90
27858;DHT22;16852;51.446;6.528;2022-10-31T05:38:48;15.10;99.90
27858;DHT22;16852;51.446;6.528;2022-10-31T05:40:48;15.10;99.90
27858;DHT22;16852;51.446;6.528;2022-10-31T05:42:53;15.10;99.90
27858;DHT22;16852;51.446;6.528;2022-10-31T05:44:54;15.10;99.90
27858;DHT22;16852;51.446;6.528;2022-10-31T05:46:55;15.10;99.90
27858;DHT22;16852;51.446;6.528;2022-10-31T05:48:55;15.10;99.90
27858;DHT22;16852;51.446;6.528;2022-10-31T05:50:56;15.10;99.90
27858;DHT22;16852;51.446;6.528;2022-10-31T05:52:57;15.10;99.90
27858;DHT22;16852;51.446;6.528;2022-10-31T05:54:58;15.10;99.90
27858;DHT22;16852;51.446;6.528;2022-10-31T05:56:59;15.10;99.90
27858;DHT22;16852;51.446;6.528;2022-10-31T05:58:59;15.10;99.90
27858;DHT22;16852;51.446;6.528;2022-10-31T06:01:00;15.00;99.90
27858;DHT22;16852;51.446;6.528;2022-10-31T06:03:02;15.00;99.90
27858;DHT22;16852;51.446;6.528;2022-10-31T06:05:03;15.00;99.90
27858;DHT22;16852;51.446;6.528;2022-10-31T06:07:04;15.00;99.90
27858;DHT22;16852;51.446;6.528;2022-10-31T06:09:05;15.00;99.90
27858;DHT22;16852;51.446;6.528;2022-10-31T06:11:05;15.00;99.90
27858;DHT22;16852;51.446;6.528;2022-10-31T06:13:06;15.00;99.90
27858;DHT22;16852;51.446;6.528;2022-10-31T06:15:08;15.00;99.90
27858;DHT22;16852;51.446;6.528;2022-10-31T06:17:08;14.90;99.90
27858;DHT22;16852;51.446;6.528;2022-10-31T06:19:09;15.00;99.90
27858;DHT22;16852;51.446;6.528;2022-10-31T06:21:09;15.00;99.90
27858;DHT22;16852;51.446;6.528;2022-10-31T06:23:10;15.00;99.90
27858;DHT22;16852;51.446;6.528;2022-10-31T06:25:11;15.00;99.90
27858;DHT22;16852;51.446;6.528;2022-10-31T06:27:11;14.90;99.90
27858;DHT22;16852;51.446;6.528;2022-10-31T06:29:12;14.90;99.90
27858;DHT22;16852;51.446;6.528;2022-10-31T06:31:13;14.90;99.90
27858;DHT22;16852;51.446;6.528;2022-10-31T06:33:13;14.90;99.90
27858;DHT22;16852;51.446;6.528;2022-10-31T06:35:14;14.90;99.90
27858;DHT22;16852;51.446;6.528;2022-10-31T06:37:15;14.90;99.90
27858;DHT22;16852;51.446;6.528;2022-10-31T06:39:16;14.80;99.90
27858;DHT22;16852;51.446;6.528;2022-10-31T06:41:16;14.90;99.90
27858;DHT22;16852;51.446;6.528;2022-10-31T06:43:17;14.90;99.90
27858;DHT22;16852;51.446;6.528;2022-10-31T06:45:17;14.80;99.90
27858;DHT22;16852;51.446;6.528;2022-10-31T06:47:18;14.90;99.90
27858;DHT22;16852;51.446;6.528;2022-10-31T06:49:18;14.90;99.90
27858;DHT22;16852;51.446;6.528;2022-10-31T06:51:19;14.90;99.90
27858;DHT22;16852;51.446;6.528;2022-10-31T06:53:19;14.90;99.90
27858;DHT22;16852;51.446;6.528;2022-10-31T06:55:21;14.80;99.90
27858;DHT22;16852;51.446;6.528;2022-10-31T06:57:22;14.80;99.90
27858;DHT22;16852;51.446;6.528;2022-10-31T06:59:23;14.80;99.90
27858;DHT22;16852;51.446;6.528;2022-10-31T07:01:24;14.90;99.90
27858;DHT22;16852;51.446;6.528;2022-10-31T07:03:25;14.80;99.90
27858;DHT22;16852;51.446;6.528;2022-10-31T07:05:26;14.90;99.90
27858;DHT22;16852;51.446;6.528;2022-10-31T07:07:27;14.90;99.90
27858;DHT22;16852;51.446;6.528;2022-10-31T07:09:28;14.90;99.90
27858;DHT22;16852;51.446;6.528;2022-10-31T07:11:28;14.90;99.90
27858;DHT22;16852;51.446;6.528;2022-10-31T07:13:29;14.90;99.90
27858;DHT22;16852;51.446;6.528;2022-10-31T07:15:33;14.90;99.90
27858;DHT22;16852;51.446;6.528;2022-10-31T07:17:34;15.00;99.90
27858;DHT22;16852;51.446;6.528;2022-10-31T07:19:34;15.00;99.90
27858;DHT22;16852;51.446;6.528;2022-10-31T07:21:35;15.00;99.90
27858;DHT22;16852;51.446;6.528;2022-10-31T07:23:36;15.00;99.90
27858;DHT22;16852;51.446;6.528;2022-10-31T07:25:40;14.90;99.90
27858;DHT22;16852;51.446;6.528;2022-10-31T07:27:42;14.90;99.90
27858;DHT22;16852;51.446;6.528;2022-10-31T07:29:43;14.90;99.90
27858;DHT22;16852;51.446;6.528;2022-10-31T07:31:46;14.90;99.90
27858;DHT22;16852;51.446;6.528;2022-10-31T07:33:46;14.90;99.90
27858;DHT22;16852;51.446;6.528;2022-10-31T07:35:47;14.90;99.90
27858;DHT22;16852;51.446;6.528;2022-10-31T07:37:48;14.90;99.90
27858;DHT22;16852;51.446;6.528;2022-10-31T07:39:49;15.00;99.90
27858;DHT22;16852;51.446;6.528;2022-10-31T07:41:49;15.00;99.90
27858;DHT22;16852;51.446;6.528;2022-10-31T07:43:50;14.90;99.90
27858;DHT22;16852;51.446;6.528;2022-10-31T07:45:51;14.90;99.90
27858;DHT22;16852;51.446;6.528;2022-10-31T07:47:53;15.00;99.90
27858;DHT22;16852;51.446;6.528;2022-10-31T07:49:53;15.00;99.90
27858;DHT22;16852;51.446;6.528;2022-10-31T07:51:55;15.00;99.90
27858;DHT22;16852;51.446;6.528;2022-10-31T07:53:55;15.00;99.90
27858;DHT22;16852;51.446;6.528;2022-10-31T07:55:56;15.10;99.90
27858;DHT22;16852;51.446;6.528;2022-10-31T07:58:04;15.10;99.90
27858;DHT22;16852;51.446;6.528;2022-10-31T08:00:07;15.20;99.90
27858;DHT22;16852;51.446;6.528;2022-10-31T08:02:08;15.20;99.90
27858;DHT22;16852;51.446;6.528;2022-10-31T08:04:09;15.20;99.90
27858;DHT22;16852;51.446;6.528;2022-10-31T08:06:09;15.20;99.90
27858;DHT22;16852;51.446;6.528;2022-10-31T08:08:10;15.30;99.90
27858;DHT22;16852;51.446;6.528;2022-10-31T08:10:10;15.30;99.90
27858;DHT22;16852;51.446;6.528;2022-10-31T08:12:11;15.40;99.90
27858;DHT22;16852;51.446;6.528;2022-10-31T08:14:14;15.40;99.90
27858;DHT22;16852;51.446;6.528;2022-10-31T08:16:18;15.50;99.90
27858;DHT22;16852;51.446;6.528;2022-10-31T08:18:28;15.50;99.90
27858;DHT22;16852;51.446;6.528;2022-10-31T08:20:49;15.60;99.90
27858;DHT22;16852;51.446;6.528;2022-10-31T08:23:03;15.70;99.90
27858;DHT22;16852;51.446;6.528;2022-10-31T08:25:36;15.70;99.90
27858;DHT22;16852;51.446;6.528;2022-10-31T08:27:46;15.70;99.90
27858;DHT22;16852;51.446;6.528;2022-10-31T08:29:57;15.80;99.90
27858;DHT22;16852;51.446;6.528;2022-10-31T08:31:58;15.80;99.90
27858;DHT22;16852;51.446;6.528;2022-10-31T08:33:59;15.90;99.90
27858;DHT22;16852;51.446;6.528;2022-10-31T08:36:00;15.90;99.90
27858;DHT22;16852;51.446;6.528;2022-10-31T08:38:01;15.80;99.90
27858;DHT22;16852;51.446;6.528;2022-10-31T08:40:02;15.80;99.90
27858;DHT22;16852;51.446;6.528;2022-10-31T08:42:03;15.90;99.90
27858;DHT22;16852;51.446;6.528;2022-10-31T08:44:03;15.80;99.90
27858;DHT22;16852;51.446;6.528;2022-10-31T08:46:04;15.80;99.90
27858;DHT22;16852;51.446;6.528;2022-10-31T08:48:12;15.80;99.90
27858;DHT22;16852;51.446;6.528;2022-10-31T08:50:13;16.00;99.90
27858;DHT22;16852;51.446;6.528;2022-10-31T08:52:13;16.10;99.90
27858;DHT22;16852;51.446;6.528;2022-10-31T08:54:15;16.20;99.90
27858;DHT22;16852;51.446;6.528;2022-10-31T08:56:15;16.20;99.90
27858;DHT22;16852;51.446;6.528;2022-10-31T08:58:18;16.40;99.90
27858;DHT22;16852;51.446;6.528;2022-10-31T09:00:19;16.40;99.90
27858;DHT22;16852;51.446;6.528;2022-10-31T09:02:20;16.50;99.90
27858;DHT22;16852;51.446;6.528;2022-10-31T09:04:20;16.60;99.90
27858;DHT22;16852;51.446;6.528;2022-10-31T09:06:21;16.70;99.90
27858;DHT22;16852;51.446;6.528;2022-10-31T09:08:22;16.80;99.90
27858;DHT22;16852;51.446;6.528;2022-10-31T09:10:23;16.80;99.90
27858;DHT22;16852;51.446;6.528;2022-10-31T09:12:23;16.90;99.90
27858;DHT22;16852;51.446;6.528;2022-10-31T09:14:24;16.90;99.90
27858;DHT22;16852;51.446;6.528;2022-10-31T09:16:25;17.00;99.90
27858;DHT22;16852;51.446;6.528;2022-10-31T09:18:25;17.00;99.90
27858;DHT22;16852;51.446;6.528;2022-10-31T09:20:29;17.00;99.90
27858;DHT22;16852;51.446;6.528;2022-10-31T09:22:30;17.00;99.90
27858;DHT22;16852;51.446;6.528;2022-10-31T09:24:31;17.00;99.90
27858;DHT22;16852;51.446;6.528;2022-10-31T09:26:33;17.00;99.90
27858;DHT22;16852;51.446;6.528;2022-10-31T09:28:33;17.00;99.90
27858;DHT22;16852;51.446;6.528;2022-10-31T09:30:35;17.00;99.90
27858;DHT22;16852;51.446;6.528;2022-10-31T09:32:36;16.90;99.90
27858;DHT22;16852;51.446;6.528;2022-10-31T09:34:36;16.90;99.90
27858;DHT22;16852;51.446;6.528;2022-10-31T09:36:40;17.00;99.90
27858;DHT22;16852;51.446;6.528;2022-10-31T09:38:40;16.90;99.90
27858;DHT22;16852;51.446;6.528;2022-10-31T09:43:41;16.90;99.90
27858;DHT22;16852;51.446;6.528;2022-10-31T09:45:56;16.80;99.90
27858;DHT22;16852;51.446;6.528;2022-10-31T09:48:03;16.80;99.90
27858;DHT22;16852;51.446;6.528;2022-10-31T09:50:22;16.80;99.90
27858;DHT22;16852;51.446;6.528;2022-10-31T09:52:28;16.80;99.90
27858;DHT22;16852;51.446;6.528;2022-10-31T09:56:47;16.80;99.90
27858;DHT22;16852;51.446;6.528;2022-10-31T09:58:53;16.80;99.90
27858;DHT22;16852;51.446;6.528;2022-10-31T10:00:56;16.80;99.90
27858;DHT22;16852;51.446;6.528;2022-10-31T10:03:11;16.90;99.90
27858;DHT22;16852;51.446;6.528;2022-10-31T10:07:54;16.70;99.90
27858;DHT22;16852;51.446;6.528;2022-10-31T10:09:56;16.80;99.90
27858;DHT22;16852;51.446;6.528;2022-10-31T10:12:23;16.70;99.90
27858;DHT22;16852;51.446;6.528;2022-10-31T10:17:43;16.80;99.90
27858;DHT22;16852;51.446;6.528;2022-10-31T10:24:08;17.00;99.90
27858;DHT22;16852;51.446;6.528;2022-10-31T10:26:20;17.00;99.90
27858;DHT22;16852;51.446;6.528;2022-10-31T10:28:27;17.10;99.90
27858;DHT22;16852;51.446;6.528;2022-10-31T10:32:57;17.20;99.90
27858;DHT22;16852;51.446;6.528;2022-10-31T10:35:09;17.20;99.90
27858;DHT22;16852;51.446;6.528;2022-10-31T10:37:18;17.20;99.90
27858;DHT22;16852;51.446;6.528;2022-10-31T10:39:25;17.20;99.90
27858;DHT22;16852;51.446;6.528;2022-10-31T10:41:31;17.30;99.90
27858;DHT22;16852;51.446;6.528;2022-10-31T10:43:38;17.30;99.90
27858;DHT22;16852;51.446;6.528;2022-10-31T10:45:39;17.30;99.90
27858;DHT22;16852;51.446;6.528;2022-10-31T10:48:21;17.30;99.90
27858;DHT22;16852;51.446;6.528;2022-10-31T10:50:30;17.30;99.90
27858;DHT22;16852;51.446;6.528;2022-10-31T10:57:53;17.30;99.90
27858;DHT22;16852;51.446;6.528;2022-10-31T10:59:55;17.30;99.90
27858;DHT22;16852;51.446;6.528;2022-10-31T11:01:56;17.20;99.90
27858;DHT22;16852;51.446;6.528;2022-10-31T11:03:58;17.30;99.90
27858;DHT22;16852;51.446;6.528;2022-10-31T11:06:01;17.30;99.90
27858;DHT22;16852;51.446;6.528;2022-10-31T11:08:02;17.30;99.90
27858;DHT22;16852;51.446;6.528;2022-10-31T11:10:05;17.30;99.90
27858;DHT22;16852;51.446;6.528;2022-10-31T11:12:30;17.30;99.90
27858;DHT22;16852;51.446;6.528;2022-10-31T11:14:31;17.30;99.90
27858;DHT22;16852;51.446;6.528;2022-10-31T11:16:36;17.40;99.90
27858;DHT22;16852;51.446;6.528;2022-10-31T11:18:41;17.50;99.90
27858;DHT22;16852;51.446;6.528;2022-10-31T11:20:54;17.50;99.90
27858;DHT22;16852;51.446;6.528;2022-10-31T11:25:34;17.60;99.90
27858;DHT22;16852;51.446;6.528;2022-10-31T11:27:34;17.70;99.90
27858;DHT22;16852;51.446;6.528;2022-10-31T11:29:35;17.70;99.90
27858;DHT22;16852;51.446;6.528;2022-10-31T11:31:37;17.60;99.90
27858;DHT22;16852;51.446;6.528;2022-10-31T11:35:44;17.70;99.90
27858;DHT22;16852;51.446;6.528;2022-10-31T11:37:46;17.80;99.90
27858;DHT22;16852;51.446;6.528;2022-10-31T11:39:49;17.80;99.90
27858;DHT22;16852;51.446;6.528;2022-10-31T11:41:54;17.80;99.90
27858;DHT22;16852;51.446;6.528;2022-10-31T11:44:11;17.80;99.90
27858;DHT22;16852;51.446;6.528;2022-10-31T11:46:17;17.80;99.90
27858;DHT22;16852;51.446;6.528;2022-10-31T11:48:21;17.90;99.90
27858;DHT22;16852;51.446;6.528;2022-10-31T11:50:25;17.90;99.90
27858;DHT22;16852;51.446;6.528;2022-10-31T11:52:29;17.90;99.90
27858;DHT22;16852;51.446;6.528;2022-10-31T11:54:41;18.00;99.90
27858;DHT22;16852;51.446;6.528;2022-10-31T11:56:42;18.00;99.90
27858;DHT22;16852;51.446;6.528;2022-10-31T11:58:43;18.00;99.90
27858;DHT22;16852;51.446;6.528;2022-10-31T12:00:52;18.10;99.90
27858;DHT22;16852;51.446;6.528;2022-10-31T12:03:30;18.10;99.90
27858;DHT22;16852;51.446;6.528;2022-10-31T12:05:32;18.20;99.90
27858;DHT22;16852;51.446;6.528;2022-10-31T12:07:33;18.10;99.90
27858;DHT22;16852;51.446;6.528;2022-10-31T12:09:35;18.10;99.90
27858;DHT22;16852;51.446;6.528;2022-10-31T12:14:01;18.20;99.90
27858;DHT22;16852;51.446;6.528;2022-10-31T12:16:18;18.20;99.90
27858;DHT22;16852;51.446;6.528;2022-10-31T12:20:48;18.30;99.90
27858;DHT22;16852;51.446;6.528;2022-10-31T12:29:55;18.40;99.90
27858;DHT22;16852;51.446;6.528;2022-10-31T12:32:17;18.40;99.90
27858;DHT22;16852;51.446;6.528;2022-10-31T12:36:47;18.50;99.90
27858;DHT22;16852;51.446;6.528;2022-10-31T12:39:06;18.50;99.90
27858;DHT22;16852;51.446;6.528;2022-10-31T12:41:37;18.60;99.90
27858;DHT22;16852;51.446;6.528;2022-10-31T12:56:00;18.80;99.90
27858;DHT22;16852;51.446;6.528;2022-10-31T12:58:10;18.80;99.90
27858;DHT22;16852;51.446;6.528;2022-10-31T13:00:19;18.90;99.90
27858;DHT22;16852;51.446;6.528;2022-10-31T13:04:57;18.90;99.90
27858;DHT22;16852;51.446;6.528;2022-10-31T13:07:08;19.00;99.90
27858;DHT22;16852;51.446;6.528;2022-10-31T13:09:15;19.00;99.90
27858;DHT22;16852;51.446;6.528;2022-10-31T13:11:22;19.10;99.90
27858;DHT22;16852;51.446;6.528;2022-10-31T13:13:27;19.10;99.90
27858;DHT22;16852;51.446;6.528;2022-10-31T13:15:35;19.10;99.90
27858;DHT22;16852;51.446;6.528;2022-10-31T13:17:45;19.10;99.90
27858;DHT22;16852;51.446;6.528;2022-10-31T13:19:47;19.20;99.90
27858;DHT22;16852;51.446;6.528;2022-10-31T13:23:58;19.20;99.90
27858;DHT22;16852;51.446;6.528;2022-10-31T13:26:06;19.20;99.90
27858;DHT22;16852;51.446;6.528;2022-10-31T13:28:24;19.20;99.90
27858;DHT22;16852;51.446;6.528;2022-10-31T13:30:31;19.30;99.90
27858;DHT22;16852;51.446;6.528;2022-10-31T13:32:46;19.30;99.90
27858;DHT22;16852;51.446;6.528;2022-10-31T13:34:52;19.30;99.90
27858;DHT22;16852;51.446;6.528;2022-10-31T13:37:01;19.30;99.90
27858;DHT22;16852;51.446;6.528;2022-10-31T13:45:55;19.40;99.90
27858;DHT22;16852;51.446;6.528;2022-10-31T13:47:57;19.50;99.90
27858;DHT22;16852;51.446;6.528;2022-10-31T13:50:18;19.50;99.90
27858;DHT22;16852;51.446;6.528;2022-10-31T13:52:24;19.50;99.90
27858;DHT22;16852;51.446;6.528;2022-10-31T13:54:33;19.50;99.90
27858;DHT22;16852;51.446;6.528;2022-10-31T13:56:34;19.50;99.90
27858;DHT22;16852;51.446;6.528;2022-10-31T13:58:35;19.50;99.90
27858;DHT22;16852;51.446;6.528;2022-10-31T14:00:36;19.50;99.90
27858;DHT22;16852;51.446;6.528;2022-10-31T14:02:37;19.60;99.90
27858;DHT22;16852;51.446;6.528;2022-10-31T14:04:44;19.50;99.90
27858;DHT22;16852;51.446;6.528;2022-10-31T14:06:54;19.50;99.90
27858;DHT22;16852;51.446;6.528;2022-10-31T14:08:57;19.50;99.90
27858;DHT22;16852;51.446;6.528;2022-10-31T14:10:58;19.50;99.90
27858;DHT22;16852;51.446;6.528;2022-10-31T14:13:21;19.50;99.90
27858;DHT22;16852;51.446;6.528;2022-10-31T14:15:27;19.60;99.90
27858;DHT22;16852;51.446;6.528;2022-10-31T14:17:38;19.60;99.90
27858;DHT22;16852;51.446;6.528;2022-10-31T14:19:39;19.60;99.90
27858;DHT22;16852;51.446;6.528;2022-10-31T14:21:42;19.60;99.90
27858;DHT22;16852;51.446;6.528;2022-10-31T14:23:43;19.60;99.90
27858;DHT22;16852;51.446;6.528;2022-10-31T14:25:45;19.60;99.90
27858;DHT22;16852;51.446;6.528;2022-10-31T14:27:46;19.60;99.90
27858;DHT22;16852;51.446;6.528;2022-10-31T14:29:47;19.70;99.90
27858;DHT22;16852;51.446;6.528;2022-10-31T14:32:04;19.60;99.90
27858;DHT22;16852;51.446;6.528;2022-10-31T14:34:21;19.70;99.90